sensor_id;sensor_type;location;lat;lon;timestamp;pressure;altitude;pressure_sealevel;temperature;humidity
10587;BME280;5341;47.606;7.576;2023-04-03T00:00:58;99247.91;;;12.84;57.91
10587;BME280;5341;47.606;7.576;2023-04-03T00:03:25;99245.59;;;12.81;58.02
10587;BME280;5341;47.606;7.576;2023-04-03T00:05:53;99241.81;;;12.75;57.83
10587;BME280;5341;47.606;7.576;2023-04-03T00:08:22;99252.75;;;12.74;58.04
10587;BME280;5341;47.606;7.576;2023-04-03T00:10:49;99252.06;;;12.72;57.98
10587;BME280;5341;47.606;7.576;2023-04-03T00:13:17;99251.22;;;12.71;58.15
10587;BME280;5341;47.606;7.576;2023-04-03T00:15:44;99254.09;;;12.70;57.72
10587;BME280;5341;47.606;7.576;2023-04-03T00:18:12;99253.72;;;12.58;57.67
10587;BME280;5341;47.606;7.576;2023-04-03T00:20:39;99255.75;;;12.56;57.80
10587;BME280;5341;47.606;7.576;2023-04-03T00:23:07;99256.13;;;12.53;57.67
10587;BME280;5341;47.606;7.576;2023-04-03T00:25:36;99259.38;;;12.48;57.73
10587;BME280;5341;47.606;7.576;2023-04-03T00:28:04;99269.41;;;12.46;57.72
10587;BME280;5341;47.606;7.576;2023-04-03T00:30:31;99260.97;;;12.35;57.14
10587;BME280;5341;47.606;7.576;2023-04-03T00:32:59;99260.88;;;12.28;57.52
10587;BME280;5341;47.606;7.576;2023-04-03T00:35:28;99264.41;;;12.28;57.69
10587;BME280;5341;47.606;7.576;2023-04-03T00:37:56;99260.28;;;12.18;57.52
10587;BME280;5341;47.606;7.576;2023-04-03T00:40:25;99264.69;;;12.11;57.46
10587;BME280;5341;47.606;7.576;2023-04-03T00:42:58;99265.97;;;12.00;57.36
10587;BME280;5341;47.606;7.576;2023-04-03T00:45:34;99264.00;;;11.94;57.74
10587;BME280;5341;47.606;7.576;2023-04-03T00:48:04;99261.78;;;11.97;57.72
10587;BME280;5341;47.606;7.576;2023-04-03T00:50:34;99257.97;;;11.92;57.81
10587;BME280;5341;47.606;7.576;2023-04-03T00:53:03;99266.03;;;11.92;57.81
10587;BME280;5341;47.606;7.576;2023-04-03T00:55:32;99255.13;;;11.93;57.74
10587;BME280;5341;47.606;7.576;2023-04-03T00:58:03;99254.75;;;11.96;58.04
10587;BME280;5341;47.606;7.576;2023-04-03T01:00:30;99257.63;;;11.95;57.67
10587;BME280;5341;47.606;7.576;2023-04-03T01:02:58;99261.31;;;11.94;57.97
10587;BME280;5341;47.606;7.576;2023-04-03T01:05:27;99260.13;;;11.96;57.52
10587;BME280;5341;47.606;7.576;2023-04-03T01:07:55;99259.09;;;11.97;57.44
10587;BME280;5341;47.606;7.576;2023-04-03T01:10:23;99264.28;;;11.99;57.27
10587;BME280;5341;47.606;7.576;2023-04-03T01:12:52;99264.13;;;12.00;57.69
10587;BME280;5341;47.606;7.576;2023-04-03T01:15:22;99267.47;;;12.02;57.19
10587;BME280;5341;47.606;7.576;2023-04-03T01:17:51;99270.97;;;12.03;57.19
10587;BME280;5341;47.606;7.576;2023-04-03T01:23:40;99279.25;;;11.93;57.09
10587;BME280;5341;47.606;7.576;2023-04-03T01:26:11;99294.31;;;11.94;57.39
10587;BME280;5341;47.606;7.576;2023-04-03T01:28:39;99295.97;;;11.95;57.21
10587;BME280;5341;47.606;7.576;2023-04-03T01:31:13;99295.78;;;11.97;57.21
10587;BME280;5341;47.606;7.576;2023-04-03T01:33:45;99295.59;;;11.98;56.92
10587;BME280;5341;47.606;7.576;2023-04-03T01:36:15;99290.25;;;11.98;57.03
10587;BME280;5341;47.606;7.576;2023-04-03T01:38:43;99293.75;;;11.99;57.10
10587;BME280;5341;47.606;7.576;2023-04-03T01:41:10;99293.75;;;11.99;57.07
10587;BME280;5341;47.606;7.576;2023-04-03T01:43:39;99296.44;;;11.99;56.89
10587;BME280;5341;47.606;7.576;2023-04-03T01:46:06;99295.78;;;11.97;56.99
10587;BME280;5341;47.606;7.576;2023-04-03T01:48:34;99298.66;;;11.95;56.73
10587;BME280;5341;47.606;7.576;2023-04-03T01:51:03;99293.66;;;11.92;56.83
10587;BME280;5341;47.606;7.576;2023-04-03T01:53:31;99302.91;;;11.90;56.82
10587;BME280;5341;47.606;7.576;2023-04-03T01:55:58;99294.38;;;11.78;56.26
10587;BME280;5341;47.606;7.576;2023-04-03T01:58:29;99294.75;;;11.75;57.25
10587;BME280;5341;47.606;7.576;2023-04-03T02:00:56;99291.75;;;11.70;56.81
10587;BME280;5341;47.606;7.576;2023-04-03T02:03:24;99299.00;;;11.61;56.13
10587;BME280;5341;47.606;7.576;2023-04-03T02:05:54;99298.50;;;11.58;56.87
10587;BME280;5341;47.606;7.576;2023-04-03T02:08:23;99296.00;;;11.56;57.06
10587;BME280;5341;47.606;7.576;2023-04-03T02:10:51;99302.38;;;11.55;56.97
10587;BME280;5341;47.606;7.576;2023-04-03T02:13:19;99302.38;;;11.55;56.93
10587;BME280;5341;47.606;7.576;2023-04-03T02:15:46;99300.72;;;11.54;57.29
10587;BME280;5341;47.606;7.576;2023-04-03T02:18:17;99300.91;;;11.53;56.87
10587;BME280;5341;47.606;7.576;2023-04-03T02:20:46;99302.56;;;11.54;57.18
10587;BME280;5341;47.606;7.576;2023-04-03T02:23:14;99301.72;;;11.53;56.58
10587;BME280;5341;47.606;7.576;2023-04-03T02:25:43;99297.53;;;11.51;57.15
10587;BME280;5341;47.606;7.576;2023-04-03T02:28:10;99303.06;;;11.49;56.97
10587;BME280;5341;47.606;7.576;2023-04-03T02:30:38;99301.22;;;11.50;56.45
10587;BME280;5341;47.606;7.576;2023-04-03T02:33:05;99301.41;;;11.48;56.68
10587;BME280;5341;47.606;7.576;2023-04-03T02:35:33;99305.94;;;11.48;57.07
10587;BME280;5341;47.606;7.576;2023-04-03T02:38:00;99304.44;;;11.45;57.13
10587;BME280;5341;47.606;7.576;2023-04-03T02:40:28;99307.28;;;11.43;56.62
10587;BME280;5341;47.606;7.576;2023-04-03T02:42:57;99305.63;;;11.42;56.49
10587;BME280;5341;47.606;7.576;2023-04-03T02:45:25;99306.63;;;11.41;56.80
10587;BME280;5341;47.606;7.576;2023-04-03T02:47:52;99309.31;;;11.41;56.86
10587;BME280;5341;47.606;7.576;2023-04-03T02:50:20;99308.47;;;11.41;56.91
10587;BME280;5341;47.606;7.576;2023-04-03T02:52:47;99315.50;;;11.42;56.76
10587;BME280;5341;47.606;7.576;2023-04-03T02:55:15;99310.97;;;11.42;56.24
10587;BME280;5341;47.606;7.576;2023-04-03T02:57:44;99309.13;;;11.43;56.50
10587;BME280;5341;47.606;7.576;2023-04-03T03:00:14;99309.97;;;11.43;56.74
10587;BME280;5341;47.606;7.576;2023-04-03T03:02:42;99311.81;;;11.43;56.06
10587;BME280;5341;47.606;7.576;2023-04-03T03:05:10;99310.16;;;11.42;56.52
10587;BME280;5341;47.606;7.576;2023-04-03T03:07:41;99313.84;;;11.41;56.33
10587;BME280;5341;47.606;7.576;2023-04-03T03:10:09;99317.53;;;11.40;56.53
10587;BME280;5341;47.606;7.576;2023-04-03T03:12:37;99319.38;;;11.39;56.32
10587;BME280;5341;47.606;7.576;2023-04-03T03:15:07;99316.84;;;11.38;56.82
10587;BME280;5341;47.606;7.576;2023-04-03T03:17:40;99317.84;;;11.37;56.66
10587;BME280;5341;47.606;7.576;2023-04-03T03:20:12;99319.69;;;11.36;56.35
10587;BME280;5341;47.606;7.576;2023-04-03T03:22:41;99318.03;;;11.35;56.21
10587;BME280;5341;47.606;7.576;2023-04-03T03:25:09;99328.56;;;11.37;56.21
10587;BME280;5341;47.606;7.576;2023-04-03T03:27:36;99325.06;;;11.36;56.64
10587;BME280;5341;47.606;7.576;2023-04-03T03:30:10;99320.53;;;11.37;56.12
10587;BME280;5341;47.606;7.576;2023-04-03T03:32:40;99320.69;;;11.35;56.38
10587;BME280;5341;47.606;7.576;2023-04-03T03:35:09;99325.88;;;11.37;56.17
10587;BME280;5341;47.606;7.576;2023-04-03T03:37:36;99319.03;;;11.34;56.30
10587;BME280;5341;47.606;7.576;2023-04-03T03:40:10;99325.41;;;11.33;56.41
10587;BME280;5341;47.606;7.576;2023-04-03T03:42:39;99316.72;;;11.31;56.62
10587;BME280;5341;47.606;7.576;2023-04-03T03:45:07;99322.06;;;11.31;56.05
10587;BME280;5341;47.606;7.576;2023-04-03T03:47:35;99327.59;;;11.30;56.31
10587;BME280;5341;47.606;7.576;2023-04-03T03:50:06;99325.09;;;11.28;56.44
10587;BME280;5341;47.606;7.576;2023-04-03T03:52:33;99322.59;;;11.27;55.74
10587;BME280;5341;47.606;7.576;2023-04-03T03:55:01;99324.41;;;11.26;55.95
10587;BME280;5341;47.606;7.576;2023-04-03T03:57:29;99331.63;;;11.26;56.29
10587;BME280;5341;47.606;7.576;2023-04-03T03:59:57;99325.59;;;11.24;56.03
10587;BME280;5341;47.606;7.576;2023-04-03T04:02:25;99333.81;;;11.22;56.39
10587;BME280;5341;47.606;7.576;2023-04-03T04:05:00;99346.34;;;11.22;56.09
10587;BME280;5341;47.606;7.576;2023-04-03T04:07:32;99332.13;;;11.21;56.04
10587;BME280;5341;47.606;7.576;2023-04-03T04:10:01;99332.50;;;11.18;56.38
10587;BME280;5341;47.606;7.576;2023-04-03T04:12:29;99342.19;;;11.19;56.52
10587;BME280;5341;47.606;7.576;2023-04-03T04:14:57;99339.88;;;11.16;56.18
10587;BME280;5341;47.606;7.576;2023-04-03T04:17:24;99338.03;;;11.17;55.94
10587;BME280;5341;47.606;7.576;2023-04-03T04:19:52;99339.03;;;11.15;55.85
10587;BME280;5341;47.606;7.576;2023-04-03T04:22:19;99343.56;;;11.15;55.94
10587;BME280;5341;47.606;7.576;2023-04-03T04:24:48;99339.34;;;11.12;56.22
10587;BME280;5341;47.606;7.576;2023-04-03T04:27:16;99346.38;;;11.13;56.04
10587;BME280;5341;47.606;7.576;2023-04-03T04:29:44;99346.53;;;11.12;55.79
10587;BME280;5341;47.606;7.576;2023-04-03T04:32:11;99338.69;;;11.10;55.69
10587;BME280;5341;47.606;7.576;2023-04-03T04:34:40;99339.69;;;11.09;56.06
10587;BME280;5341;47.606;7.576;2023-04-03T04:37:08;99341.53;;;11.09;56.21
10587;BME280;5341;47.606;7.576;2023-04-03T04:39:35;99343.56;;;11.07;56.08
10587;BME280;5341;47.606;7.576;2023-04-03T04:42:05;99341.22;;;11.04;56.08
10587;BME280;5341;47.606;7.576;2023-04-03T04:44:35;99343.06;;;11.03;55.85
10587;BME280;5341;47.606;7.576;2023-04-03T04:47:03;99346.91;;;11.01;55.41
10587;BME280;5341;47.606;7.576;2023-04-03T04:49:32;99350.59;;;11.00;55.41
10587;BME280;5341;47.606;7.576;2023-04-03T04:52:00;99349.75;;;10.99;55.94
10587;BME280;5341;47.606;7.576;2023-04-03T04:54:30;99356.94;;;10.99;55.70
10587;BME280;5341;47.606;7.576;2023-04-03T04:56:58;99348.25;;;10.97;55.67
10587;BME280;5341;47.606;7.576;2023-04-03T04:59:29;99350.09;;;10.96;56.19
10587;BME280;5341;47.606;7.576;2023-04-03T05:01:58;99353.63;;;10.97;56.31
10587;BME280;5341;47.606;7.576;2023-04-03T05:04:27;99347.44;;;10.96;55.67
10587;BME280;5341;47.606;7.576;2023-04-03T05:07:01;99352.78;;;10.96;55.98
10587;BME280;5341;47.606;7.576;2023-04-03T05:09:31;99359.31;;;10.94;55.80
10587;BME280;5341;47.606;7.576;2023-04-03T05:11:59;99354.13;;;10.92;55.66
10587;BME280;5341;47.606;7.576;2023-04-03T05:14:35;99362.34;;;10.91;55.96
10587;BME280;5341;47.606;7.576;2023-04-03T05:17:06;99364.50;;;10.87;55.92
10587;BME280;5341;47.606;7.576;2023-04-03T05:19:37;99370.00;;;10.85;55.88
10587;BME280;5341;47.606;7.576;2023-04-03T05:22:06;99363.84;;;10.85;55.85
10587;BME280;5341;47.606;7.576;2023-04-03T05:24:34;99367.34;;;10.85;55.68
10587;BME280;5341;47.606;7.576;2023-04-03T05:27:02;99365.69;;;10.84;55.84
10587;BME280;5341;47.606;7.576;2023-04-03T05:29:32;99367.50;;;10.84;55.42
10587;BME280;5341;47.606;7.576;2023-04-03T05:32:02;99363.16;;;10.83;55.41
10587;BME280;5341;47.606;7.576;2023-04-03T05:34:30;99370.19;;;10.84;55.78
10587;BME280;5341;47.606;7.576;2023-04-03T05:36:59;99373.69;;;10.84;55.81
10587;BME280;5341;47.606;7.576;2023-04-03T05:39:29;99369.34;;;10.83;56.01
10587;BME280;5341;47.606;7.576;2023-04-03T05:41:57;99365.84;;;10.83;55.46
10587;BME280;5341;47.606;7.576;2023-04-03T05:44:25;99372.22;;;10.82;55.83
10587;BME280;5341;47.606;7.576;2023-04-03T05:46:54;99366.03;;;10.81;55.42
10587;BME280;5341;47.606;7.576;2023-04-03T05:49:23;99372.38;;;10.80;55.76
10587;BME280;5341;47.606;7.576;2023-04-03T05:51:51;99376.91;;;10.80;55.97
10587;BME280;5341;47.606;7.576;2023-04-03T05:54:24;99369.03;;;10.78;55.29
10587;BME280;5341;47.606;7.576;2023-04-03T05:56:57;99371.03;;;10.76;55.73
10587;BME280;5341;47.606;7.576;2023-04-03T05:59:26;99366.69;;;10.75;55.54
10587;BME280;5341;47.606;7.576;2023-04-03T06:01:57;99375.03;;;10.72;55.70
10587;BME280;5341;47.606;7.576;2023-04-03T06:04:26;99374.56;;;10.69;56.14
10587;BME280;5341;47.606;7.576;2023-04-03T06:06:56;99381.09;;;10.66;55.82
10587;BME280;5341;47.606;7.576;2023-04-03T06:09:28;99377.88;;;10.63;56.02
10587;BME280;5341;47.606;7.576;2023-04-03T06:11:56;99379.72;;;10.62;55.80
10587;BME280;5341;47.606;7.576;2023-04-03T06:14:26;99379.06;;;10.60;56.24
10587;BME280;5341;47.606;7.576;2023-04-03T06:16:54;99388.94;;;10.60;56.04
10587;BME280;5341;47.606;7.576;2023-04-03T06:19:22;99393.94;;;10.63;55.77
10587;BME280;5341;47.606;7.576;2023-04-03T06:21:56;99381.56;;;10.62;56.02
10587;BME280;5341;47.606;7.576;2023-04-03T06:24:24;99382.56;;;10.61;56.31
10587;BME280;5341;47.606;7.576;2023-04-03T06:26:52;99378.41;;;10.58;56.42
10587;BME280;5341;47.606;7.576;2023-04-03T06:29:20;99382.91;;;10.57;55.54
10587;BME280;5341;47.606;7.576;2023-04-03T06:31:48;99381.06;;;10.58;55.32
10587;BME280;5341;47.606;7.576;2023-04-03T06:34:16;99390.94;;;10.57;55.89
10587;BME280;5341;47.606;7.576;2023-04-03T06:36:44;99395.28;;;10.59;55.68
10587;BME280;5341;47.606;7.576;2023-04-03T06:39:15;99401.47;;;10.59;56.26
10587;BME280;5341;47.606;7.576;2023-04-03T06:41:44;99396.13;;;10.59;55.57
10587;BME280;5341;47.606;7.576;2023-04-03T06:44:12;99396.94;;;10.60;55.77
10587;BME280;5341;47.606;7.576;2023-04-03T06:46:42;99402.31;;;10.60;56.07
10587;BME280;5341;47.606;7.576;2023-04-03T06:49:10;99401.47;;;10.59;56.22
10587;BME280;5341;47.606;7.576;2023-04-03T06:51:38;99403.13;;;10.60;56.07
10587;BME280;5341;47.606;7.576;2023-04-03T06:54:06;99399.78;;;10.58;55.67
10587;BME280;5341;47.606;7.576;2023-04-03T06:56:35;99406.97;;;10.57;56.04
10587;BME280;5341;47.606;7.576;2023-04-03T06:59:03;99412.34;;;10.57;56.38
10587;BME280;5341;47.606;7.576;2023-04-03T07:01:31;99408.81;;;10.57;55.97
10587;BME280;5341;47.606;7.576;2023-04-03T07:03:58;99404.47;;;10.56;56.21
10587;BME280;5341;47.606;7.576;2023-04-03T07:06:26;99409.00;;;10.55;56.44
10587;BME280;5341;47.606;7.576;2023-04-03T07:08:58;99408.16;;;10.55;55.66
10587;BME280;5341;47.606;7.576;2023-04-03T07:11:26;99406.50;;;10.54;56.11
10587;BME280;5341;47.606;7.576;2023-04-03T07:13:59;99407.31;;;10.54;55.91
10587;BME280;5341;47.606;7.576;2023-04-03T07:16:28;99409.16;;;10.54;56.07
10587;BME280;5341;47.606;7.576;2023-04-03T07:18:57;99413.66;;;10.53;56.13
10587;BME280;5341;47.606;7.576;2023-04-03T07:21:24;99410.13;;;10.53;55.95
10587;BME280;5341;47.606;7.576;2023-04-03T07:23:52;99417.19;;;10.54;56.25
10587;BME280;5341;47.606;7.576;2023-04-03T07:26:20;99424.34;;;10.53;56.22
10587;BME280;5341;47.606;7.576;2023-04-03T07:28:52;99424.34;;;10.53;56.27
10587;BME280;5341;47.606;7.576;2023-04-03T07:31:22;99424.22;;;10.55;56.59
10587;BME280;5341;47.606;7.576;2023-04-03T07:33:51;99431.22;;;10.56;56.73
10587;BME280;5341;47.606;7.576;2023-04-03T07:36:21;99430.88;;;10.59;56.64
10587;BME280;5341;47.606;7.576;2023-04-03T07:38:52;99433.56;;;10.59;55.81
10587;BME280;5341;47.606;7.576;2023-04-03T07:41:20;99437.06;;;10.60;56.43
10587;BME280;5341;47.606;7.576;2023-04-03T07:43:48;99429.72;;;10.62;56.29
10587;BME280;5341;47.606;7.576;2023-04-03T07:46:17;99439.56;;;10.61;56.51
10587;BME280;5341;47.606;7.576;2023-04-03T07:48:48;99434.88;;;10.63;56.60
10587;BME280;5341;47.606;7.576;2023-04-03T07:51:16;99438.41;;;10.64;56.65
10587;BME280;5341;47.606;7.576;2023-04-03T07:53:43;99442.75;;;10.65;56.16
10587;BME280;5341;47.606;7.576;2023-04-03T07:56:11;99435.41;;;10.67;56.54
10587;BME280;5341;47.606;7.576;2023-04-03T07:58:38;99440.91;;;10.65;56.46
10587;BME280;5341;47.606;7.576;2023-04-03T08:01:06;99442.75;;;10.65;56.59
10587;BME280;5341;47.606;7.576;2023-04-03T08:03:34;99441.06;;;10.64;56.96
10587;BME280;5341;47.606;7.576;2023-04-03T08:06:05;99438.41;;;10.64;56.95
10587;BME280;5341;47.606;7.576;2023-04-03T08:08:33;99449.09;;;10.64;56.58
10587;BME280;5341;47.606;7.576;2023-04-03T08:11:01;99448.25;;;10.63;57.01
10587;BME280;5341;47.606;7.576;2023-04-03T08:13:31;99445.75;;;10.62;56.68
10587;BME280;5341;47.606;7.576;2023-04-03T08:16:07;99444.94;;;10.61;56.92
10587;BME280;5341;47.606;7.576;2023-04-03T08:18:35;99452.28;;;10.59;57.02
10587;BME280;5341;47.606;7.576;2023-04-03T08:21:10;99446.94;;;10.59;57.55
10587;BME280;5341;47.606;7.576;2023-04-03T08:23:38;99450.63;;;10.58;57.42
10587;BME280;5341;47.606;7.576;2023-04-03T08:26:08;99453.28;;;10.58;57.45
10587;BME280;5341;47.606;7.576;2023-04-03T08:28:36;99464.00;;;10.58;57.29
10587;BME280;5341;47.606;7.576;2023-04-03T08:31:04;99466.66;;;10.58;57.12
10587;BME280;5341;47.606;7.576;2023-04-03T08:33:35;99452.44;;;10.57;57.24
10587;BME280;5341;47.606;7.576;2023-04-03T08:36:15;99462.47;;;10.55;57.82
10587;BME280;5341;47.606;7.576;2023-04-03T08:38:43;99457.31;;;10.54;57.96
10587;BME280;5341;47.606;7.576;2023-04-03T08:41:14;99454.75;;;10.52;57.74
10587;BME280;5341;47.606;7.576;2023-04-03T08:43:56;99460.13;;;10.52;57.69
10587;BME280;5341;47.606;7.576;2023-04-03T08:46:35;99454.94;;;10.51;57.66
10587;BME280;5341;47.606;7.576;2023-04-03T08:49:11;99451.25;;;10.52;57.44
10587;BME280;5341;47.606;7.576;2023-04-03T08:51:48;99463.50;;;10.54;57.98
10587;BME280;5341;47.606;7.576;2023-04-03T08:54:24;99460.31;;;10.59;57.73
10587;BME280;5341;47.606;7.576;2023-04-03T08:56:53;99454.78;;;10.61;57.87
10587;BME280;5341;47.606;7.576;2023-04-03T08:59:26;99460.63;;;10.64;57.94
10587;BME280;5341;47.606;7.576;2023-04-03T09:01:57;99463.00;;;10.67;57.40
10587;BME280;5341;47.606;7.576;2023-04-03T09:04:29;99459.81;;;10.72;57.44
10587;BME280;5341;47.606;7.576;2023-04-03T09:07:08;99462.16;;;10.75;57.72
10587;BME280;5341;47.606;7.576;2023-04-03T09:09:41;99464.66;;;10.76;57.73
10587;BME280;5341;47.606;7.576;2023-04-03T09:12:17;99473.22;;;10.80;57.91
10587;BME280;5341;47.606;7.576;2023-04-03T09:14:51;99468.88;;;10.79;57.89
10587;BME280;5341;47.606;7.576;2023-04-03T09:17:29;99467.69;;;10.81;58.18
10587;BME280;5341;47.606;7.576;2023-04-03T09:20:03;99462.66;;;10.86;57.76
10587;BME280;5341;47.606;7.576;2023-04-03T09:22:40;99456.66;;;10.93;58.23
10587;BME280;5341;47.606;7.576;2023-04-03T09:25:12;99459.66;;;10.98;57.52
10587;BME280;5341;47.606;7.576;2023-04-03T09:27:41;99457.16;;;11.04;58.22
10587;BME280;5341;47.606;7.576;2023-04-03T09:30:13;99456.63;;;11.09;58.52
10587;BME280;5341;47.606;7.576;2023-04-03T09:32:43;99464.84;;;11.15;58.19
10587;BME280;5341;47.606;7.576;2023-04-03T09:35:19;99463.31;;;11.21;58.35
10587;BME280;5341;47.606;7.576;2023-04-03T09:37:50;99471.34;;;11.29;58.32
10587;BME280;5341;47.606;7.576;2023-04-03T09:40:29;99459.13;;;11.35;58.50
10587;BME280;5341;47.606;7.576;2023-04-03T09:42:59;99454.94;;;11.40;58.53
10587;BME280;5341;47.606;7.576;2023-04-03T09:45:29;99453.59;;;11.44;58.17
10587;BME280;5341;47.606;7.576;2023-04-03T09:48:08;99458.25;;;11.51;57.95
10587;BME280;5341;47.606;7.576;2023-04-03T09:50:36;99460.59;;;11.54;58.11
10587;BME280;5341;47.606;7.576;2023-04-03T09:53:07;99450.53;;;11.56;58.00
10587;BME280;5341;47.606;7.576;2023-04-03T09:55:52;99448.53;;;11.58;57.35
10587;BME280;5341;47.606;7.576;2023-04-03T09:58:26;99452.03;;;11.58;57.37
10587;BME280;5341;47.606;7.576;2023-04-03T10:00:57;99449.34;;;11.58;57.17
10587;BME280;5341;47.606;7.576;2023-04-03T10:03:28;99455.56;;;11.59;56.98
10587;BME280;5341;47.606;7.576;2023-04-03T10:05:58;99447.69;;;11.57;56.12
10587;BME280;5341;47.606;7.576;2023-04-03T10:08:29;99453.41;;;11.54;55.93
10587;BME280;5341;47.606;7.576;2023-04-03T10:11:09;99443.88;;;11.52;55.15
10587;BME280;5341;47.606;7.576;2023-04-03T10:13:51;99452.75;;;11.52;55.26
10587;BME280;5341;47.606;7.576;2023-04-03T10:16:20;99445.03;;;11.49;55.25
10587;BME280;5341;47.606;7.576;2023-04-03T10:18:58;99442.16;;;11.51;55.50
10587;BME280;5341;47.606;7.576;2023-04-03T10:21:34;99452.88;;;11.51;54.91
10587;BME280;5341;47.606;7.576;2023-04-03T10:24:10;99448.53;;;11.50;55.21
10587;BME280;5341;47.606;7.576;2023-04-03T10:26:45;99440.69;;;11.48;54.75
10587;BME280;5341;47.606;7.576;2023-04-03T10:29:25;99446.03;;;11.48;54.35
10587;BME280;5341;47.606;7.576;2023-04-03T10:32:02;99444.19;;;11.49;54.32
10587;BME280;5341;47.606;7.576;2023-04-03T10:34:33;99435.13;;;11.50;55.00
10587;BME280;5341;47.606;7.576;2023-04-03T10:37:11;99438.00;;;11.48;55.09
10587;BME280;5341;47.606;7.576;2023-04-03T10:39:46;99435.84;;;11.52;54.83
10587;BME280;5341;47.606;7.576;2023-04-03T10:42:23;99437.31;;;11.54;54.66
10587;BME280;5341;47.606;7.576;2023-04-03T10:45:03;99441.16;;;11.60;54.73
10587;BME280;5341;47.606;7.576;2023-04-03T10:47:42;99422.75;;;11.49;55.00
10587;BME280;5341;47.606;7.576;2023-04-03T10:50:38;99437.34;;;11.46;55.20
10587;BME280;5341;47.606;7.576;2023-04-03T10:53:17;99431.81;;;11.48;55.94
10587;BME280;5341;47.606;7.576;2023-04-03T10:55:53;99435.66;;;11.53;55.66
10587;BME280;5341;47.606;7.576;2023-04-03T10:58:29;99429.94;;;11.56;55.86
10587;BME280;5341;47.606;7.576;2023-04-03T11:01:02;99430.59;;;11.58;56.09
10587;BME280;5341;47.606;7.576;2023-04-03T11:03:36;99435.28;;;11.64;56.66
10587;BME280;5341;47.606;7.576;2023-04-03T11:06:08;99435.41;;;11.71;56.83
10587;BME280;5341;47.606;7.576;2023-04-03T11:08:39;99418.84;;;11.76;56.70
10587;BME280;5341;47.606;7.576;2023-04-03T11:11:13;99415.34;;;11.75;56.91
10587;BME280;5341;47.606;7.576;2023-04-03T11:13:46;99415.47;;;11.82;56.84
10587;BME280;5341;47.606;7.576;2023-04-03T11:16:20;99413.44;;;11.92;57.27
10587;BME280;5341;47.606;7.576;2023-04-03T11:18:54;99421.09;;;12.03;57.24
10587;BME280;5341;47.606;7.576;2023-04-03T11:21:28;99414.69;;;12.12;56.71
10587;BME280;5341;47.606;7.576;2023-04-03T11:23:57;99408.22;;;12.21;56.59
10587;BME280;5341;47.606;7.576;2023-04-03T11:26:31;99409.88;;;12.30;56.53
10587;BME280;5341;47.606;7.576;2023-04-03T11:29:06;99400.75;;;12.40;56.82
10587;BME280;5341;47.606;7.576;2023-04-03T11:31:43;99398.72;;;12.42;56.63
10587;BME280;5341;47.606;7.576;2023-04-03T11:34:24;99395.50;;;12.46;56.46
10587;BME280;5341;47.606;7.576;2023-04-03T11:36:56;99399.50;;;12.50;56.22
10587;BME280;5341;47.606;7.576;2023-04-03T11:39:28;99393.22;;;12.58;56.04
10587;BME280;5341;47.606;7.576;2023-04-03T11:42:17;99393.91;;;12.60;56.53
10587;BME280;5341;47.606;7.576;2023-04-03T11:44:51;99395.03;;;12.66;56.25
10587;BME280;5341;47.606;7.576;2023-04-03T11:47:46;99389.59;;;12.74;56.29
10587;BME280;5341;47.606;7.576;2023-04-03T11:50:44;99391.38;;;12.81;56.07
10587;BME280;5341;47.606;7.576;2023-04-03T11:53:33;99378.53;;;12.91;55.76
10587;BME280;5341;47.606;7.576;2023-04-03T11:56:04;99390.69;;;13.02;55.64
10587;BME280;5341;47.606;7.576;2023-04-03T11:58:34;99382.91;;;13.07;54.44
10587;BME280;5341;47.606;7.576;2023-04-03T12:01:07;99385.88;;;13.12;53.39
10587;BME280;5341;47.606;7.576;2023-04-03T12:03:56;99379.13;;;13.16;51.45
10587;BME280;5341;47.606;7.576;2023-04-03T12:10:02;99377.13;;;13.18;49.54
10587;BME280;5341;47.606;7.576;2023-04-03T12:12:38;99379.81;;;13.18;49.62
10587;BME280;5341;47.606;7.576;2023-04-03T12:15:26;99376.25;;;13.18;48.43
10587;BME280;5341;47.606;7.576;2023-04-03T12:18:42;99378.47;;;13.14;48.37
10587;BME280;5341;47.606;7.576;2023-04-03T12:21:10;99383.84;;;13.14;50.21
10587;BME280;5341;47.606;7.576;2023-04-03T12:24:00;99381.81;;;13.16;49.36
10587;BME280;5341;47.606;7.576;2023-04-03T12:26:32;99372.72;;;13.17;49.54
10587;BME280;5341;47.606;7.576;2023-04-03T12:29:13;99372.41;;;13.21;49.17
10587;BME280;5341;47.606;7.576;2023-04-03T12:31:54;99377.59;;;13.22;48.57
10587;BME280;5341;47.606;7.576;2023-04-03T12:34:46;99366.66;;;13.24;49.88
10587;BME280;5341;47.606;7.576;2023-04-03T12:37:29;99364.91;;;13.31;50.07
10587;BME280;5341;47.606;7.576;2023-04-03T12:40:09;99367.22;;;13.34;49.78
10587;BME280;5341;47.606;7.576;2023-04-03T12:42:58;99368.91;;;13.35;49.60
10587;BME280;5341;47.606;7.576;2023-04-03T12:45:41;99362.31;;;13.37;49.76
10587;BME280;5341;47.606;7.576;2023-04-03T12:48:15;99360.09;;;13.41;49.88
10587;BME280;5341;47.606;7.576;2023-04-03T12:50:46;99349.16;;;13.42;49.24
10587;BME280;5341;47.606;7.576;2023-04-03T12:53:16;99362.31;;;13.37;48.98
10587;BME280;5341;47.606;7.576;2023-04-03T12:55:45;99349.91;;;13.36;49.35
10587;BME280;5341;47.606;7.576;2023-04-03T12:58:20;99355.91;;;13.38;49.56
10587;BME280;5341;47.606;7.576;2023-04-03T13:00:59;99354.91;;;13.39;48.62
10587;BME280;5341;47.606;7.576;2023-04-03T13:03:30;99355.91;;;13.38;49.18
10587;BME280;5341;47.606;7.576;2023-04-03T13:06:00;99347.88;;;13.38;48.77
10587;BME280;5341;47.606;7.576;2023-04-03T13:08:29;99344.97;;;13.40;49.56
10587;BME280;5341;47.606;7.576;2023-04-03T13:11:01;99351.84;;;13.42;49.20
10587;BME280;5341;47.606;7.576;2023-04-03T13:13:29;99352.66;;;13.43;48.93
10587;BME280;5341;47.606;7.576;2023-04-03T13:15:58;99353.50;;;13.43;49.28
10587;BME280;5341;47.606;7.576;2023-04-03T13:18:31;99344.59;;;13.43;49.00
10587;BME280;5341;47.606;7.576;2023-04-03T13:21:03;99348.81;;;13.45;49.01
10587;BME280;5341;47.606;7.576;2023-04-03T13:23:43;99357.50;;;13.47;49.18
10587;BME280;5341;47.606;7.576;2023-04-03T13:26:25;99348.59;;;13.47;48.76
10587;BME280;5341;47.606;7.576;2023-04-03T13:29:05;99349.63;;;13.46;48.80
10587;BME280;5341;47.606;7.576;2023-04-03T13:31:35;99346.94;;;13.46;48.92
10587;BME280;5341;47.606;7.576;2023-04-03T13:34:27;99345.91;;;13.47;48.45
10587;BME280;5341;47.606;7.576;2023-04-03T13:37:00;99343.44;;;13.45;49.11
10587;BME280;5341;47.606;7.576;2023-04-03T13:39:40;99343.03;;;13.48;49.19